Lack, Pennsylvania
Current Conditions -  °F | °C
As of 6:53 PM on Wednesday 26 Nov 2014 (Local Time) from KAOO Reporting Station
Haze Haze  
Wind Chill: 25°   Ceiling: 1100
Heat Index: 31°   Visibility: 6mi
Dew Point: 30°   Wind: 6mph
Humidity: 96%   Direction: 10°N
Pressure: 29.95"   Gusts: NA
Location:  40.2561°N, 77.7747°W
Report Text: KAOO 262353Z AUTO 01005KT 6SM BR BKN011 OVC019 M01/M01 A2995 RMK AO2 SNE08 SLP159 P0000 60007 T10061011 10000 21017 57001
Loading
Personal Weather Stations






























Interactive Weather Map New forecast layout! Learn more

10-Day Weather Forecast

Advertisements
Track Severe Weather on mobile